Time;durP1;ratioP1;P1;durP2;ratioP2;P2;SDS_P1;SDS_P2;PMS_P1;PMS_P2;Temp;Humidity;BMP_temperature;BMP_pressure;BME280_temperature;BME280_humidity;BME280_pressure;Samples;Min_cycle;Max_cycle;Signal;HPM_P1;HPM_P2
2023/02/15 00:01:11;;;;;;;2.63;1.70;;;22.10;54.00;;;;;;5051934;28;20220;-53
2023/02/15 00:03:44;;;;;;;2.78;1.50;;;22.10;54.00;;;;;;5052025;28;20690;-54
2023/02/15 00:06:15;;;;;;;2.20;1.35;;;22.20;54.10;;;;;;5052032;28;20234;-54
2023/02/15 00:08:45;;;;;;;3.58;1.58;;;22.10;54.00;;;;;;5051921;28;20541;-55
2023/02/15 00:11:39;;;;;;;3.63;1.60;;;22.20;54.10;;;;;;5051948;28;20242;-51
2023/02/15 00:14:09;;;;;;;2.70;1.50;;;22.20;54.10;;;;;;5047526;28;20191;-53
2023/02/15 00:16:40;;;;;;;2.70;1.60;;;22.20;54.10;;;;;;5051778;28;20195;-53
2023/02/15 00:19:15;;;;;;;3.35;1.27;;;22.20;54.10;;;;;;5051691;28;20195;-53
2023/02/15 00:21:45;;;;;;;1.73;1.20;;;22.20;54.10;;;;;;5051503;28;20218;-54
2023/02/15 00:24:19;;;;;;;1.90;1.25;;;22.20;54.10;;;;;;5051771;28;20222;-53
2023/02/15 00:26:51;;;;;;;2.50;1.38;;;22.20;54.10;;;;;;5051812;28;20227;-52
2023/02/15 00:29:22;;;;;;;2.92;1.75;;;22.20;54.10;;;;;;5051861;28;20200;-54
2023/02/15 00:31:53;;;;;;;3.28;1.60;;;22.20;54.10;;;;;;5044990;28;20208;-54
2023/02/15 00:34:29;;;;;;;3.28;1.40;;;22.20;54.00;;;;;;5031907;28;20204;-55
2023/02/15 00:36:59;;;;;;;2.30;1.17;;;22.20;54.00;;;;;;5033968;28;20655;-53
2023/02/15 00:39:30;;;;;;;2.85;1.27;;;22.20;54.10;;;;;;5051576;28;20538;-53
2023/02/15 00:42:01;;;;;;;2.58;1.30;;;22.20;54.10;;;;;;5051307;28;20223;-54
2023/02/15 00:44:31;;;;;;;2.50;1.17;;;22.20;54.10;;;;;;5051156;28;20195;-52
2023/02/15 00:47:02;;;;;;;3.15;1.55;;;22.20;54.10;;;;;;5051411;28;20223;-53
2023/02/15 00:49:34;;;;;;;2.63;1.35;;;22.20;54.10;;;;;;5050851;28;20203;-55
2023/02/15 00:52:05;;;;;;;2.05;1.10;;;22.30;54.20;;;;;;5051053;28;20792;-57
2023/02/15 00:54:38;;;;;;;2.72;1.23;;;22.30;54.20;;;;;;5051699;28;20651;-53
2023/02/15 00:57:09;;;;;;;2.10;1.35;;;22.30;54.30;;;;;;5051201;28;20235;-55
2023/02/15 00:59:39;;;;;;;3.53;1.40;;;22.30;54.30;;;;;;5051396;28;20192;-56
2023/02/15 01:02:10;;;;;;;2.60;1.60;;;22.30;54.30;;;;;;5051323;28;20602;-53
2023/02/15 01:04:43;;;;;;;2.72;1.30;;;22.30;54.30;;;;;;5051034;28;20199;-55
2023/02/15 01:07:13;;;;;;;2.85;1.40;;;22.30;54.30;;;;;;5050701;28;20234;-56
2023/02/15 01:09:44;;;;;;;1.98;1.50;;;22.30;54.30;;;;;;5051057;28;20210;-52
2023/02/15 01:12:15;;;;;;;2.28;1.55;;;22.30;54.20;;;;;;5051337;28;20717;-55
2023/02/15 01:14:45;;;;;;;3.42;1.23;;;22.30;54.20;;;;;;5050977;28;20210;-53
2023/02/15 01:17:16;;;;;;;3.17;1.10;;;22.30;54.20;;;;;;5051049;28;20206;-54
2023/02/15 01:19:49;;;;;;;2.05;1.00;;;22.40;54.30;;;;;;5050894;28;20670;-56
2023/02/15 01:22:19;;;;;;;1.85;1.20;;;22.30;54.20;;;;;;5050848;28;20234;-55
2023/02/15 01:24:52;;;;;;;2.17;1.15;;;22.40;54.30;;;;;;5051209;28;20199;-54
2023/02/15 01:27:23;;;;;;;2.58;1.38;;;22.40;54.30;;;;;;5053648;28;20223;-55
2023/02/15 01:29:54;;;;;;;2.05;1.25;;;22.40;54.30;;;;;;5055020;28;20199;-53
2023/02/15 01:32:24;;;;;;;2.83;1.20;;;22.40;54.30;;;;;;5055217;28;20215;-55
2023/02/15 01:34:57;;;;;;;2.47;1.13;;;22.40;54.90;;;;;;5040059;28;20644;-55
2023/02/15 01:37:28;;;;;;;1.35;0.95;;;22.40;54.90;;;;;;5041035;28;20210;-54
2023/02/15 01:39:59;;;;;;;2.17;1.20;;;22.40;54.30;;;;;;5055028;28;20227;-54
2023/02/15 01:42:31;;;;;;;1.88;1.20;;;22.40;54.30;;;;;;5054565;28;20298;-55
2023/02/15 01:45:03;;;;;;;2.17;1.30;;;22.40;54.30;;;;;;5054526;28;20199;-54
2023/02/15 01:47:41;;;;;;;1.42;1.08;;;22.40;54.20;;;;;;5053689;28;20226;-53
2023/02/15 01:50:18;;;;;;;3.50;1.00;;;22.40;54.30;;;;;;5052014;28;20212;-54
2023/02/15 01:52:55;;;;;;;2.85;1.50;;;22.40;54.20;;;;;;5054059;28;20203;-55
2023/02/15 01:55:29;;;;;;;1.77;1.00;;;22.40;54.30;;;;;;5055170;28;20269;-55
2023/02/15 01:58:01;;;;;;;2.30;1.17;;;22.50;54.30;;;;;;5054478;28;20206;-54
2023/02/15 02:00:31;;;;;;;1.52;1.17;;;22.40;54.30;;;;;;5054400;28;20235;-52
2023/02/15 02:03:03;;;;;;;3.50;1.17;;;22.50;54.30;;;;;;5054432;28;20206;-54
2023/02/15 02:05:36;;;;;;;1.35;1.10;;;22.40;54.30;;;;;;5054292;28;20199;-53
2023/02/15 02:08:07;;;;;;;2.35;1.23;;;22.50;54.30;;;;;;5053930;28;20203;-55
2023/02/15 02:10:38;;;;;;;1.90;0.90;;;22.50;54.30;;;;;;5054237;28;20219;-54
2023/02/15 02:13:10;;;;;;;1.92;1.05;;;22.50;54.40;;;;;;5054599;28;20208;-53
2023/02/15 02:15:51;;;;;;;1.65;1.00;;;22.50;54.40;;;;;;5054052;28;20200;-55
2023/02/15 02:18:38;;;;;;;1.30;0.90;;;22.50;54.40;;;;;;5053566;28;20695;-54
2023/02/15 02:21:42;;;;;;;2.85;1.00;;;22.50;54.40;;;;;;5050732;28;20203;-51
2023/02/15 02:24:44;;;;;;;2.88;1.00;;;22.50;54.40;;;;;;5036722;28;20203;-54
2023/02/15 02:27:32;;;;;;;1.63;1.17;;;22.50;54.30;;;;;;5034207;28;20223;-54
2023/02/15 02:30:33;;;;;;;1.40;1.00;;;22.50;54.30;;;;;;5034110;28;20753;-56
2023/02/15 02:33:35;;;;;;;1.77;1.10;;;22.50;54.30;;;;;;5020777;28;20198;-54
2023/02/15 02:36:14;;;;;;;1.75;1.02;;;22.60;54.30;;;;;;5033943;28;20211;-55
2023/02/15 02:38:57;;;;;;;1.55;1.08;;;22.50;54.30;;;;;;5050082;28;20203;-54
2023/02/15 02:41:34;;;;;;;2.10;1.10;;;22.50;54.30;;;;;;5053788;28;20242;-55
2023/02/15 02:44:12;;;;;;;2.80;1.25;;;22.50;54.40;;;;;;5053960;28;20199;-55
2023/02/15 02:46:56;;;;;;;1.52;0.98;;;22.60;54.50;;;;;;5053385;28;20634;-54
2023/02/15 02:49:39;;;;;;;1.77;1.00;;;22.50;54.40;;;;;;5053699;28;20210;-54
2023/02/15 02:52:30;;;;;;;2.10;1.25;;;22.60;54.40;;;;;;5053316;28;20219;-55
2023/02/15 02:55:02;;;;;;;1.15;0.90;;;22.60;54.40;;;;;;5053511;28;20562;-52
2023/02/15 02:57:35;;;;;;;1.60;0.98;;;22.60;54.40;;;;;;5053517;28;20590;-54
2023/02/15 03:00:09;;;;;;;1.55;1.00;;;22.60;54.50;;;;;;5053468;28;20195;-55
2023/02/15 03:02:43;;;;;;;1.27;1.00;;;22.60;54.50;;;;;;5053413;28;20223;-55
2023/02/15 03:05:20;;;;;;;2.38;1.02;;;22.70;54.50;;;;;;5053686;28;20198;-55
2023/02/15 03:07:54;;;;;;;2.25;1.00;;;22.70;54.50;;;;;;5053022;28;20702;-52
2023/02/15 03:10:27;;;;;;;1.55;0.95;;;22.70;54.50;;;;;;5052700;28;20188;-55
2023/02/15 03:12:57;;;;;;;2.45;1.15;;;22.60;54.40;;;;;;5053143;28;20640;-55
2023/02/15 03:16:25;;;;;;;1.20;1.02;;;22.60;54.40;;;;;;5052867;28;20192;-53
2023/02/15 03:18:25;;;;;;;1.20;1.00;;;22.70;54.40;;;;;;5053053;28;20643;-54
2023/02/15 03:20:59;;;;;;;1.90;0.95;;;22.70;54.50;;;;;;5053153;28;20219;-51
2023/02/15 03:23:32;;;;;;;2.33;1.25;;;22.70;54.40;;;;;;5053076;28;20651;-54
2023/02/15 03:26:05;;;;;;;1.52;0.88;;;22.60;54.40;;;;;;5052786;28;20200;-54
2023/02/15 03:28:43;;;;;;;2.00;1.10;;;22.70;54.40;;;;;;5052474;28;20204;-55
2023/02/15 03:31:16;;;;;;;2.28;1.00;;;22.70;54.40;;;;;;5052280;28;20215;-54
2023/02/15 03:33:52;;;;;;;1.75;1.08;;;22.70;54.40;;;;;;5035049;28;20205;-54
2023/02/15 03:36:31;;;;;;;1.65;1.00;;;22.70;54.40;;;;;;5032961;28;20213;-56
2023/02/15 03:39:07;;;;;;;2.10;1.10;;;22.70;54.40;;;;;;5051995;28;20218;-52
2023/02/15 03:41:43;;;;;;;2.15;1.17;;;22.70;54.40;;;;;;5052544;28;20222;-51
2023/02/15 03:44:18;;;;;;;1.77;1.15;;;22.70;54.40;;;;;;5053050;28;20202;-55
2023/02/15 03:46:54;;;;;;;2.92;1.40;;;22.70;54.40;;;;;;5052352;28;20618;-54
2023/02/15 03:49:27;;;;;;;1.92;0.77;;;22.70;54.40;;;;;;5051085;28;20211;-53
2023/02/15 03:52:02;;;;;;;2.08;1.20;;;22.70;54.40;;;;;;5034310;28;20208;-53
2023/02/15 03:54:45;;;;;;;1.88;1.20;;;22.70;54.40;;;;;;5033060;28;20200;-55
2023/02/15 04:03:19;;;;;;;2.75;1.17;;;22.70;54.40;;;;;;5032185;28;20544;-56
2023/02/15 04:05:50;;;;;;;1.92;1.13;;;22.80;54.40;;;;;;5031923;28;20211;-56
2023/02/15 04:10:51;;;;;;;2.22;1.20;;;22.80;54.40;;;;;;5045334;28;20235;-55
2023/02/15 04:11:12;;;;;;;2.35;1.17;;;22.70;54.40;;;;;;5052413;28;20227;-56
2023/02/15 04:13:43;;;;;;;1.92;1.00;;;22.70;54.40;;;;;;5048870;28;20560;-56
2023/02/15 04:16:12;;;;;;;1.90;1.10;;;22.80;54.50;;;;;;5051935;28;20196;-55
2023/02/15 04:27:07;;;;;;;1.90;1.00;;;22.80;54.60;;;;;;5051061;28;20234;-57
2023/02/15 04:29:38;;;;;;;3.45;1.27;;;22.70;54.50;;;;;;5051335;28;20234;-59
2023/02/15 04:32:08;;;;;;;3.35;1.40;;;22.80;54.60;;;;;;5049879;28;20211;-51
2023/02/15 04:34:39;;;;;;;2.78;1.33;;;22.80;54.70;;;;;;5048830;28;20195;-54
2023/02/15 04:37:10;;;;;;;3.17;1.67;;;22.70;54.60;;;;;;5051227;28;20233;-55
2023/02/15 04:39:42;;;;;;;3.58;1.38;;;22.80;54.60;;;;;;5051159;28;20206;-58
2023/02/15 04:42:13;;;;;;;1.95;1.25;;;22.70;54.60;;;;;;5050668;28;20219;-56
2023/02/15 04:44:44;;;;;;;2.58;1.20;;;22.80;54.60;;;;;;5051439;28;20697;-57
2023/02/15 04:47:14;;;;;;;3.25;1.33;;;22.80;54.70;;;;;;5051657;28;20223;-58
2023/02/15 04:49:45;;;;;;;3.90;1.58;;;22.80;54.70;;;;;;5051365;28;20203;-58
2023/02/15 04:52:17;;;;;;;3.30;1.20;;;22.80;54.70;;;;;;5050948;28;20223;-58
2023/02/15 04:54:49;;;;;;;5.70;1.40;;;22.80;54.80;;;;;;5051724;28;20261;-58
2023/02/15 04:57:20;;;;;;;5.60;1.45;;;22.80;54.80;;;;;;5051080;28;20196;-57
2023/02/15 04:59:50;;;;;;;2.50;1.38;;;22.80;54.90;;;;;;5050476;28;20207;-58
2023/02/15 05:02:21;;;;;;;2.85;1.13;;;22.80;54.80;;;;;;5051168;28;20211;-58
2023/02/15 05:04:52;;;;;;;2.67;1.27;;;22.80;54.80;;;;;;5051030;28;20651;-58
2023/02/15 05:07:22;;;;;;;2.60;1.30;;;22.80;54.80;;;;;;5051079;28;20324;-58
2023/02/15 05:09:55;;;;;;;3.88;1.50;;;22.80;54.80;;;;;;5051294;28;20202;-56
2023/02/15 05:12:26;;;;;;;2.67;1.30;;;22.80;54.80;;;;;;5050926;28;20589;-55
2023/02/15 05:14:56;;;;;;;4.93;1.52;;;22.80;54.80;;;;;;5050442;28;20187;-55
2023/02/15 05:17:27;;;;;;;3.47;1.48;;;22.80;54.80;;;;;;5050691;28;20226;-56
2023/02/15 05:19:58;;;;;;;2.97;1.35;;;22.80;54.90;;;;;;5050811;28;20195;-55
2023/02/15 05:22:28;;;;;;;3.83;1.55;;;22.80;54.80;;;;;;5050927;28;20220;-57
2023/02/15 05:30:42;;;;;;;3.35;1.58;;;22.80;54.70;;;;;;4998558;28;20220;-57
2023/02/15 05:33:14;;;;;;;4.32;1.58;;;22.80;54.70;;;;;;5030566;28;20675;-56
2023/02/15 05:35:45;;;;;;;3.60;1.25;;;22.80;54.60;;;;;;5030459;28;20200;-56
2023/02/15 05:38:16;;;;;;;2.60;1.10;;;22.80;54.60;;;;;;5043257;28;20200;-54
2023/02/15 05:40:48;;;;;;;4.18;1.50;;;22.80;54.70;;;;;;5050803;28;20219;-55
2023/02/15 05:43:19;;;;;;;2.42;1.42;;;22.80;54.60;;;;;;5051404;28;20200;-56
2023/02/15 05:45:50;;;;;;;3.28;1.38;;;22.80;54.60;;;;;;5050343;28;20196;-56
2023/02/15 05:48:22;;;;;;;3.67;1.55;;;22.70;54.60;;;;;;5032653;28;20228;-56
2023/02/15 05:51:01;;;;;;;3.58;1.40;;;22.70;54.60;;;;;;5030780;28;20246;-56
2023/02/15 05:53:33;;;;;;;2.67;1.17;;;22.80;54.70;;;;;;5031333;28;20196;-55
2023/02/15 05:56:06;;;;;;;3.92;1.40;;;22.70;54.60;;;;;;5031424;28;20207;-55
2023/02/15 05:58:40;;;;;;;1.80;1.20;;;22.70;54.60;;;;;;5030495;28;20200;-56
2023/02/15 06:01:14;;;;;;;2.75;1.35;;;22.70;54.60;;;;;;5030662;28;20707;-56
2023/02/15 06:03:45;;;;;;;2.47;1.42;;;22.70;54.60;;;;;;5030877;28;20655;-56
2023/02/15 06:06:16;;;;;;;5.00;1.50;;;22.70;54.60;;;;;;5031005;28;20568;-56
2023/02/15 06:08:47;;;;;;;3.53;1.50;;;22.70;54.50;;;;;;5047831;28;20224;-56
2023/02/15 06:11:20;;;;;;;3.00;1.50;;;22.70;54.50;;;;;;5047414;28;20208;-55
2023/02/15 06:13:50;;;;;;;3.53;1.33;;;22.70;54.50;;;;;;5054180;28;20651;-56
2023/02/15 06:16:21;;;;;;;3.60;1.42;;;22.70;54.50;;;;;;5054462;28;20556;-55
2023/02/15 06:18:52;;;;;;;3.47;1.60;;;22.70;54.60;;;;;;5054287;28;20210;-55
2023/02/15 06:21:22;;;;;;;3.75;1.48;;;22.70;54.60;;;;;;5054194;28;20212;-55
2023/02/15 06:23:53;;;;;;;3.38;1.70;;;22.60;54.60;;;;;;5054042;28;20198;-55
2023/02/15 06:26:26;;;;;;;2.30;1.20;;;22.70;54.60;;;;;;5053635;28;20667;-56
2023/02/15 06:28:56;;;;;;;2.85;1.48;;;22.70;54.60;;;;;;5053533;28;20230;-55
2023/02/15 06:31:27;;;;;;;3.08;1.20;;;22.70;54.60;;;;;;5053432;28;20717;-55
2023/02/15 06:34:00;;;;;;;3.40;1.50;;;22.60;54.60;;;;;;5053688;28;20220;-54
2023/02/15 06:36:31;;;;;;;4.35;1.98;;;22.60;54.60;;;;;;5051523;28;20191;-55
2023/02/15 06:39:02;;;;;;;2.00;1.40;;;22.60;54.60;;;;;;5034533;28;20204;-55
2023/02/15 06:41:35;;;;;;;4.28;1.58;;;22.70;54.70;;;;;;5033589;28;20220;-53
2023/02/15 06:44:06;;;;;;;3.17;1.33;;;22.70;54.70;;;;;;5033931;28;20197;-52
2023/02/15 06:46:36;;;;;;;2.30;1.30;;;22.60;54.70;;;;;;5033748;28;20200;-54
2023/02/15 06:49:07;;;;;;;2.78;1.33;;;22.60;54.60;;;;;;5034162;28;20235;-54
2023/02/15 06:51:38;;;;;;;4.38;1.92;;;22.60;54.60;;;;;;5033494;28;20220;-54
2023/02/15 06:54:09;;;;;;;1.98;1.45;;;22.60;54.60;;;;;;5033785;28;20196;-52
2023/02/15 06:56:41;;;;;;;3.47;1.60;;;22.60;54.60;;;;;;5034107;28;20675;-54
2023/02/15 06:59:12;;;;;;;2.20;1.40;;;22.60;54.60;;;;;;5033446;28;20266;-53
2023/02/15 07:01:43;;;;;;;3.13;1.48;;;22.60;54.60;;;;;;5033088;28;20224;-53
2023/02/15 07:04:14;;;;;;;4.32;1.75;;;22.60;54.60;;;;;;5033470;28;20203;-53
2023/02/15 07:06:45;;;;;;;3.13;1.33;;;22.60;54.60;;;;;;5033490;28;20196;-54
2023/02/15 07:09:16;;;;;;;3.67;1.50;;;22.60;54.60;;;;;;5053596;28;20280;-54
2023/02/15 07:14:35;;;;;;;4.15;1.67;;;22.50;54.60;;;;;;5053841;28;20302;-53
2023/02/15 07:17:05;;;;;;;4.28;1.60;;;22.60;54.60;;;;;;5053115;28;20278;-51
2023/02/15 07:19:36;;;;;;;3.58;1.38;;;22.50;54.60;;;;;;5051395;28;20549;-54
2023/02/15 07:22:07;;;;;;;2.60;1.40;;;22.50;54.60;;;;;;5033448;28;20224;-54
2023/02/15 07:24:37;;;;;;;3.25;1.30;;;22.50;54.60;;;;;;5033162;28;20206;-55
2023/02/15 07:27:10;;;;;;;2.92;1.40;;;22.50;54.60;;;;;;5033041;28;20196;-53
2023/02/15 07:29:41;;;;;;;3.08;1.48;;;22.50;54.60;;;;;;5036084;28;20192;-53
2023/02/15 07:32:11;;;;;;;3.08;1.40;;;22.50;54.70;;;;;;5041895;28;20324;-54
2023/02/15 07:34:43;;;;;;;3.40;1.55;;;22.50;54.60;;;;;;5051343;28;20203;-54
2023/02/15 07:37:13;;;;;;;3.20;1.50;;;22.50;54.70;;;;;;5050660;28;20196;-54
2023/02/15 07:39:44;;;;;;;2.88;1.33;;;22.50;54.70;;;;;;5048674;28;20195;-53
2023/02/15 07:42:17;;;;;;;2.10;1.38;;;22.50;54.70;;;;;;5052576;28;20222;-50
2023/02/15 07:44:48;;;;;;;2.45;1.15;;;22.50;54.70;;;;;;5052802;28;20283;-54
2023/02/15 07:47:19;;;;;;;3.20;1.30;;;22.50;54.70;;;;;;5052152;28;20221;-54
2023/02/15 07:49:50;;;;;;;3.30;1.40;;;22.50;54.70;;;;;;5051891;28;20278;-53
2023/02/15 07:52:20;;;;;;;3.03;1.40;;;22.50;54.70;;;;;;5052503;28;20219;-53
2023/02/15 07:54:51;;;;;;;2.75;1.15;;;22.50;54.70;;;;;;5052704;28;20175;-53
2023/02/15 07:57:24;;;;;;;3.33;1.40;;;22.40;54.70;;;;;;5052504;28;20203;-54
2023/02/15 07:59:54;;;;;;;2.17;1.42;;;22.50;54.80;;;;;;5052514;28;20219;-55
2023/02/15 08:02:25;;;;;;;3.28;1.38;;;22.40;54.80;;;;;;5051803;28;20224;-55
2023/02/15 08:04:56;;;;;;;3.65;1.70;;;22.40;54.80;;;;;;5051696;28;20202;-55
2023/02/15 08:07:26;;;;;;;3.58;1.30;;;22.40;54.80;;;;;;5051745;28;20199;-53
2023/02/15 08:09:57;;;;;;;3.17;1.20;;;22.40;54.80;;;;;;5052156;28;20191;-50
2023/02/15 08:12:29;;;;;;;2.97;1.40;;;22.40;54.80;;;;;;5051953;28;20219;-53
2023/02/15 08:15:04;;;;;;;2.42;1.30;;;22.40;54.90;;;;;;5052314;28;20200;-51
2023/02/15 08:17:38;;;;;;;1.52;0.90;;;22.40;54.80;;;;;;5048889;28;20634;-54
2023/02/15 08:20:09;;;;;;;3.38;1.65;;;22.40;54.80;;;;;;5051972;28;20362;-53
2023/02/15 08:22:40;;;;;;;2.97;1.40;;;22.40;54.80;;;;;;5051919;28;20222;-54
2023/02/15 08:25:11;;;;;;;3.00;1.30;;;22.40;54.80;;;;;;5051940;28;20234;-56
2023/02/15 08:27:43;;;;;;;2.22;1.10;;;22.40;54.80;;;;;;5051802;28;20220;-53
2023/02/15 08:30:16;;;;;;;2.20;1.10;;;22.40;55.10;;;;;;5052185;28;20199;-51
2023/02/15 08:32:46;;;;;;;3.53;1.15;;;22.40;55.00;;;;;;5051430;28;20257;-51
2023/02/15 08:35:17;;;;;;;3.40;1.50;;;22.40;54.90;;;;;;5051157;28;20204;-56
2023/02/15 08:37:48;;;;;;;3.25;1.60;;;22.40;55.00;;;;;;5051214;28;20211;-51
2023/02/15 08:40:18;;;;;;;4.22;1.50;;;22.40;55.00;;;;;;5041745;28;20200;-56
2023/02/15 08:42:51;;;;;;;2.30;1.38;;;22.30;55.30;;;;;;5031948;28;20208;-55
2023/02/15 08:45:21;;;;;;;2.25;1.23;;;22.40;55.30;;;;;;5049368;28;20202;-54
2023/02/15 08:47:52;;;;;;;2.65;1.30;;;22.40;55.20;;;;;;5051032;28;20768;-54
2023/02/15 08:50:23;;;;;;;4.25;1.38;;;22.30;55.10;;;;;;5051212;28;20203;-53
2023/02/15 08:52:53;;;;;;;2.55;1.40;;;22.30;55.10;;;;;;5051565;28;20536;-54
2023/02/15 08:55:24;;;;;;;2.60;1.05;;;22.40;55.20;;;;;;5051987;28;20210;-55
2023/02/15 08:57:57;;;;;;;5.47;1.23;;;22.40;55.20;;;;;;5051537;28;20207;-50
2023/02/15 09:00:28;;;;;;;1.73;0.98;;;22.30;55.10;;;;;;5051290;28;20557;-51
2023/02/15 09:02:58;;;;;;;1.73;1.10;;;22.40;55.10;;;;;;5051326;28;20195;-54
2023/02/15 09:05:29;;;;;;;2.15;1.05;;;22.30;55.10;;;;;;5051449;28;20195;-52
2023/02/15 09:08:00;;;;;;;1.70;1.20;;;22.30;55.10;;;;;;5051456;28;20223;-54
2023/02/15 09:10:30;;;;;;;1.27;0.90;;;22.30;55.10;;;;;;5050846;28;20195;-57
2023/02/15 09:13:03;;;;;;;2.70;1.20;;;22.30;55.10;;;;;;5051000;28;20195;-55
2023/02/15 09:15:34;;;;;;;3.17;1.05;;;22.30;55.10;;;;;;5051012;28;20198;-54
2023/02/15 09:18:05;;;;;;;2.25;0.90;;;22.30;55.00;;;;;;5050755;28;20203;-53
2023/02/15 09:20:38;;;;;;;2.33;1.08;;;22.30;55.00;;;;;;5050552;28;20567;-52
2023/02/15 09:23:09;;;;;;;2.28;1.20;;;22.30;55.00;;;;;;5042896;28;20188;-53
2023/02/15 09:25:40;;;;;;;2.30;1.10;;;22.30;55.00;;;;;;5031147;28;20203;-53
2023/02/15 09:28:12;;;;;;;2.95;1.05;;;22.30;55.00;;;;;;5030827;28;20232;-52
2023/02/15 09:30:43;;;;;;;1.85;1.20;;;22.30;55.10;;;;;;5030378;28;20216;-53
2023/02/15 09:33:14;;;;;;;1.50;0.75;;;22.20;55.00;;;;;;5030657;28;20695;-54
2023/02/15 09:35:44;;;;;;;2.75;1.30;;;22.20;55.00;;;;;;5030781;28;20196;-54
2023/02/15 09:38:15;;;;;;;1.45;0.80;;;22.20;55.00;;;;;;5043949;28;20199;-55
2023/02/15 09:40:58;;;;;;;1.45;1.08;;;22.20;55.00;;;;;;5050807;28;20562;-55
2023/02/15 09:43:41;;;;;;;1.85;1.10;;;22.20;55.00;;;;;;5050929;28;20214;-53
2023/02/15 09:46:41;;;;;;;1.85;1.10;;;22.20;55.00;;;;;;5050864;28;20214;-54
2023/02/15 09:49:18;;;;;;;1.85;1.10;;;22.20;54.90;;;;;;5051628;28;20223;-55
2023/02/15 09:52:10;;;;;;;2.15;1.00;;;22.20;54.90;;;;;;5054513;28;20479;-54
2023/02/15 09:54:54;;;;;;;2.58;1.38;;;22.20;54.90;;;;;;5055480;28;20195;-55
2023/02/15 09:57:33;;;;;;;2.20;1.05;;;22.20;54.90;;;;;;5054763;28;20671;-55
2023/02/15 10:00:13;;;;;;;1.60;1.27;;;22.20;54.90;;;;;;5054792;28;20195;-55
2023/02/15 10:03:06;;;;;;;2.17;1.10;;;22.20;54.80;;;;;;5054483;28;20221;-54
2023/02/15 10:05:49;;;;;;;2.17;1.00;;;22.20;54.80;;;;;;5054323;28;20199;-54
2023/02/15 10:08:54;;;;;;;1.33;1.00;;;22.20;54.80;;;;;;5051421;28;20590;-55
2023/02/15 10:11:42;;;;;;;1.58;1.10;;;22.20;54.90;;;;;;5054166;28;20722;-54
2023/02/15 10:14:48;;;;;;;0.90;0.80;;;22.10;54.80;;;;;;5054423;28;20203;-54
2023/02/15 10:17:36;;;;;;;1.42;1.00;;;22.10;54.80;;;;;;5052766;28;20614;-55
2023/02/15 10:20:20;;;;;;;1.10;1.00;;;22.10;54.90;;;;;;5054491;28;20199;-52
2023/02/15 10:23:10;;;;;;;1.42;1.00;;;22.10;54.90;;;;;;5054266;28;20202;-53
2023/02/15 10:25:48;;;;;;;1.85;1.05;;;22.10;54.80;;;;;;5053623;28;20195;-54
2023/02/15 10:28:21;;;;;;;1.27;1.00;;;22.10;54.90;;;;;;5054467;28;20632;-56
2023/02/15 10:30:54;;;;;;;1.05;0.95;;;22.10;54.80;;;;;;5053693;28;20222;-55
2023/02/15 10:33:41;;;;;;;1.77;1.15;;;22.10;54.90;;;;;;5054019;28;20285;-54
2023/02/15 10:36:26;;;;;;;1.55;1.10;;;22.10;54.90;;;;;;5053616;28;20219;-53
2023/02/15 10:39:04;;;;;;;2.10;1.10;;;22.10;54.90;;;;;;5053988;28;20200;-51
2023/02/15 10:41:45;;;;;;;2.17;1.08;;;22.10;54.80;;;;;;5054060;28;20389;-53
2023/02/15 10:44:29;;;;;;;1.55;1.00;;;22.10;54.80;;;;;;5053762;28;20572;-53
2023/02/15 10:47:19;;;;;;;1.58;1.10;;;22.10;54.90;;;;;;5053443;28;20204;-52
2023/02/15 10:50:13;;;;;;;1.58;1.10;;;22.10;54.90;;;;;;5053644;28;20314;-52
2023/02/15 10:52:58;;;;;;;2.75;1.10;;;22.10;54.90;;;;;;5051747;28;20226;-54
2023/02/15 10:55:42;;;;;;;1.33;1.02;;;22.00;54.90;;;;;;5036683;28;20195;-54
2023/02/15 10:58:26;;;;;;;2.00;1.10;;;22.00;54.90;;;;;;5033247;28;20200;-50
2023/02/15 11:01:03;;;;;;;1.15;1.00;;;22.00;54.90;;;;;;5033463;28;20242;-51
2023/02/15 11:03:46;;;;;;;0.98;0.88;;;22.00;54.90;;;;;;5033842;28;20235;-53
2023/02/15 11:06:20;;;;;;;1.50;1.40;;;22.00;54.90;;;;;;5033612;28;20644;-55
2023/02/15 11:08:54;;;;;;;1.45;1.08;;;22.00;54.90;;;;;;5050821;28;20223;-53
2023/02/15 11:11:29;;;;;;;1.75;1.23;;;22.00;54.90;;;;;;5053324;28;20709;-53
2023/02/15 11:14:03;;;;;;;0.75;0.75;;;22.00;54.90;;;;;;5053136;28;20643;-52
2023/02/15 11:16:36;;;;;;;1.63;1.20;;;22.00;54.90;;;;;;5053146;28;20199;-53
2023/02/15 11:19:12;;;;;;;1.45;1.02;;;22.00;54.90;;;;;;5052883;28;20204;-52
2023/02/15 11:21:49;;;;;;;1.67;1.20;;;22.00;54.90;;;;;;5053024;28;20219;-53
2023/02/15 11:24:22;;;;;;;1.35;1.08;;;21.90;54.90;;;;;;5053106;28;20559;-52
2023/02/15 11:26:58;;;;;;;1.40;1.00;;;22.00;54.90;;;;;;5052925;28;20647;-52
2023/02/15 11:29:34;;;;;;;2.25;1.30;;;22.00;54.90;;;;;;5050946;28;20686;-52
2023/02/15 11:32:16;;;;;;;1.55;1.20;;;22.00;54.90;;;;;;5051932;28;20223;-51
2023/02/15 11:34:53;;;;;;;1.38;0.93;;;21.90;54.90;;;;;;5052885;28;20546;-53
2023/02/15 11:37:32;;;;;;;1.45;1.10;;;21.90;54.90;;;;;;5052831;28;20673;-51
2023/02/15 11:40:04;;;;;;;1.67;0.85;;;21.90;54.90;;;;;;5052406;28;20203;-52
2023/02/15 11:42:36;;;;;;;1.27;1.00;;;21.90;55.50;;;;;;5052457;28;20211;-54
2023/02/15 11:45:18;;;;;;;1.73;1.00;;;21.90;54.90;;;;;;5052775;28;20199;-53
2023/02/15 11:47:49;;;;;;;1.92;1.10;;;21.90;54.90;;;;;;5052659;28;20207;-54
2023/02/15 11:50:24;;;;;;;1.73;0.95;;;21.90;54.90;;;;;;5052432;28;20223;-52
2023/02/15 11:53:02;;;;;;;2.45;1.00;;;21.90;54.90;;;;;;5052505;28;20198;-53
2023/02/15 11:55:34;;;;;;;1.33;0.80;;;21.90;54.90;;;;;;5052641;28;20577;-53
2023/02/15 11:58:13;;;;;;;1.80;1.10;;;21.90;54.90;;;;;;5049226;28;20647;-54
2023/02/15 12:00:47;;;;;;;1.30;1.00;;;21.90;54.90;;;;;;5052506;28;20219;-51
2023/02/15 12:03:21;;;;;;;1.55;1.00;;;21.90;54.90;;;;;;5052191;28;20207;-54
2023/02/15 12:05:58;;;;;;;1.83;1.17;;;21.90;54.90;;;;;;5052137;28;20674;-55
2023/02/15 12:08:39;;;;;;;1.25;0.90;;;21.90;54.90;;;;;;5052372;28;20195;-54
2023/02/15 12:11:13;;;;;;;1.45;1.08;;;21.90;54.90;;;;;;5051390;28;20226;-55
2023/02/15 12:13:58;;;;;;;1.40;1.02;;;21.90;55.00;;;;;;5048800;28;20191;-54
2023/02/15 12:16:30;;;;;;;1.67;0.98;;;21.80;55.00;;;;;;5051818;28;20200;-53
2023/02/15 12:19:03;;;;;;;1.92;1.20;;;21.80;54.90;;;;;;5052040;28;20199;-53
2023/02/15 12:21:36;;;;;;;1.58;1.10;;;21.80;55.00;;;;;;5051933;28;20215;-53
2023/02/15 12:24:22;;;;;;;2.00;1.20;;;21.80;55.00;;;;;;5051201;28;20206;-51
2023/02/15 12:27:05;;;;;;;1.00;0.90;;;21.80;55.00;;;;;;5051357;28;20599;-54
2023/02/15 12:29:42;;;;;;;2.40;1.00;;;21.80;55.00;;;;;;5051775;28;20273;-51
2023/02/15 12:32:20;;;;;;;1.27;1.00;;;21.80;55.00;;;;;;5051324;28;20281;-50
2023/02/15 12:34:51;;;;;;;2.35;1.23;;;21.80;54.90;;;;;;5051425;28;20612;-49
2023/02/15 12:37:26;;;;;;;2.25;1.02;;;21.80;54.90;;;;;;5051245;28;20576;-53
2023/02/15 12:40:00;;;;;;;1.77;1.05;;;21.80;55.00;;;;;;5051163;28;20206;-54
2023/02/15 12:42:43;;;;;;;1.55;1.08;;;21.80;55.00;;;;;;5051385;28;20223;-51
2023/02/15 12:45:27;;;;;;;1.35;0.95;;;21.80;55.00;;;;;;5051692;28;20206;-55
2023/02/15 12:48:18;;;;;;;1.17;0.93;;;21.80;55.00;;;;;;5051318;28;20195;-53
2023/02/15 12:50:49;;;;;;;1.23;0.90;;;21.80;55.00;;;;;;5051361;28;20238;-53
2023/02/15 12:53:23;;;;;;;2.03;1.00;;;21.80;55.00;;;;;;5051956;28;20652;-54
2023/02/15 12:55:57;;;;;;;1.60;1.20;;;21.80;55.00;;;;;;5051999;28;20206;-53
2023/02/15 12:58:30;;;;;;;2.20;1.13;;;21.70;55.00;;;;;;5051168;28;20392;-51
2023/02/15 13:01:16;;;;;;;1.65;1.35;;;21.70;55.00;;;;;;5037463;28;20223;-50
2023/02/15 13:04:00;;;;;;;0.98;0.85;;;21.70;55.00;;;;;;5031296;28;20635;-49
2023/02/15 13:06:33;;;;;;;2.30;1.00;;;21.70;55.00;;;;;;5031291;28;20192;-52
2023/02/15 13:09:16;;;;;;;1.48;1.00;;;21.70;55.00;;;;;;5050661;28;20618;-53
2023/02/15 13:11:50;;;;;;;2.15;1.13;;;21.70;55.00;;;;;;5051466;28;20687;-50
2023/02/15 13:14:23;;;;;;;1.63;0.95;;;21.70;55.00;;;;;;5050911;28;20678;-53
2023/02/15 13:16:56;;;;;;;2.22;1.30;;;21.70;55.00;;;;;;5050785;28;20195;-52
2023/02/15 13:19:34;;;;;;;1.55;0.90;;;21.70;55.00;;;;;;5051039;28;20203;-55
2023/02/15 13:22:08;;;;;;;1.67;0.90;;;21.70;55.00;;;;;;5053146;28;20226;-50
2023/02/15 13:24:42;;;;;;;2.28;1.20;;;21.70;55.00;;;;;;5055449;28;20207;-51
2023/02/15 13:27:17;;;;;;;1.23;0.90;;;21.70;55.00;;;;;;5053352;28;20651;-50
2023/02/15 13:29:51;;;;;;;2.13;1.20;;;21.60;55.00;;;;;;5035786;28;20306;-51
2023/02/15 13:32:30;;;;;;;2.25;1.17;;;21.70;55.00;;;;;;5034949;28;20749;-52
2023/02/15 13:35:04;;;;;;;1.83;1.20;;;21.70;55.10;;;;;;5035250;28;20502;-50
2023/02/15 13:37:58;;;;;;;2.00;1.10;;;21.60;55.00;;;;;;5042208;28;20571;-50
2023/02/15 13:40:35;;;;;;;3.60;1.48;;;21.60;55.00;;;;;;5054858;28;20199;-51
2023/02/15 13:43:17;;;;;;;1.92;0.98;;;21.60;55.00;;;;;;5054517;28;20370;-52
2023/02/15 13:46:03;;;;;;;1.63;1.10;;;21.60;55.00;;;;;;5054867;28;20199;-49
2023/02/15 13:48:44;;;;;;;1.27;0.93;;;21.60;55.00;;;;;;5054664;28;20648;-53
2023/02/15 13:51:23;;;;;;;1.10;0.90;;;21.60;55.00;;;;;;5054525;28;20223;-53